createdAt,value
2018-04-22T00:01:15.957Z,101219.09
2018-04-22T00:03:46.301Z,101219.36
2018-04-22T00:06:17.053Z,101215.53
2018-04-22T00:08:47.387Z,101210.09
2018-04-22T00:11:17.721Z,101214.45
2018-04-22T00:13:48.194Z,101207.70
2018-04-22T00:16:19.306Z,101197.23
2018-04-22T00:18:49.645Z,101203.55
2018-04-22T00:21:20.393Z,101197.91
2018-04-22T00:23:50.834Z,101191.25
2018-04-22T00:26:21.101Z,101187.83
2018-04-22T00:28:52.715Z,101177.85
2018-04-22T00:31:23.262Z,101166.91
2018-04-22T00:33:53.784Z,101174.09
2018-04-22T00:36:25.218Z,101168.05
2018-04-22T00:38:55.534Z,101163.39
2018-04-22T00:41:26.525Z,101160.71
2018-04-22T00:43:56.833Z,101161.16
2018-04-22T00:46:33.217Z,101160.30
2018-04-22T00:49:03.854Z,101158.70
2018-04-22T00:51:34.044Z,101152.45
2018-04-22T00:54:38.165Z,101148.03
2018-04-22T00:57:08.692Z,101137.94
2018-04-22T00:59:39.549Z,101138.89
2018-04-22T01:02:09.798Z,101127.95
2018-04-22T01:04:40.394Z,101132.73
2018-04-22T01:07:10.858Z,101135.56
2018-04-22T01:09:41.193Z,101124.63
2018-04-22T01:12:11.817Z,101128.80
2018-04-22T01:14:42.702Z,101121.28
2018-04-22T01:17:13.351Z,101117.71
2018-04-22T01:19:43.782Z,101116.13
2018-04-22T01:22:14.035Z,101114.81
2018-04-22T01:24:44.561Z,101119.36
2018-04-22T01:27:15.103Z,101116.38
2018-04-22T01:29:45.309Z,101110.94
2018-04-22T01:32:15.689Z,101104.20
2018-04-22T01:34:46.444Z,101111.53
2018-04-22T01:37:16.703Z,101105.45
2018-04-22T01:39:47.233Z,101098.92
2018-04-22T01:42:18.948Z,101103.06
2018-04-22T01:44:50.819Z,101093.20
2018-04-22T01:47:21.731Z,101094.03
2018-04-22T01:49:52.247Z,101091.84
2018-04-22T01:52:22.527Z,101095.44
2018-04-22T01:54:53.218Z,101088.59
2018-04-22T01:57:23.483Z,101093.55
2018-04-22T01:59:53.991Z,101088.20
2018-04-22T02:02:25.958Z,101079.03
2018-04-22T02:04:56.428Z,101088.16
2018-04-22T02:07:27.264Z,101074.96
2018-04-22T02:09:57.627Z,101085.34
2018-04-22T02:12:28.843Z,101083.63
2018-04-22T02:15:00.020Z,101078.63
2018-04-22T02:17:31.240Z,101084.52
2018-04-22T02:20:01.323Z,101081.84
2018-04-22T02:22:31.770Z,101075.20
2018-04-22T02:25:01.867Z,101076.63
2018-04-22T02:27:32.084Z,101066.89
2018-04-22T02:30:06.597Z,101070.22
2018-04-22T02:32:37.182Z,101058.90
2018-04-22T02:35:07.384Z,101058.25
2018-04-22T02:37:38.480Z,101050.67
2018-04-22T02:40:14.266Z,101047.73
2018-04-22T02:42:52.934Z,101055.22
2018-04-22T02:45:30.096Z,101052.38
2018-04-22T02:48:02.197Z,101051.64
2018-04-22T02:53:43.249Z,101034.84
2018-04-22T02:56:15.387Z,101031.98
2018-04-22T02:58:45.611Z,101031.38
2018-04-22T03:01:15.831Z,101028.16
2018-04-22T03:04:04.490Z,101026.30
2018-04-22T03:06:39.867Z,101021.80
2018-04-22T03:09:22.129Z,101020.64
2018-04-22T03:11:54.832Z,101017.08
2018-04-22T03:14:25.494Z,101015.27
2018-04-22T03:16:56.271Z,101017.11
2018-04-22T03:22:30.278Z,100974.42
2018-04-22T03:25:00.447Z,101007.34
2018-04-22T03:27:31.442Z,100993.23
2018-04-22T03:30:07.817Z,100999.00
2018-04-22T03:32:38.970Z,100988.39
2018-04-22T03:35:09.314Z,100986.25
2018-04-22T03:37:40.309Z,100979.98
2018-04-22T03:40:10.829Z,100977.30
2018-04-22T03:42:42.811Z,100970.36
2018-04-22T03:45:15.891Z,100969.14
2018-04-22T03:47:50.903Z,100966.23
2018-04-22T03:50:20.944Z,100953.76
2018-04-22T03:52:51.787Z,100955.54
2018-04-22T03:55:22.256Z,100956.00
2018-04-22T03:57:52.547Z,100952.63
2018-04-22T04:00:23.138Z,100953.89
2018-04-22T04:02:55.428Z,100953.42
2018-04-22T04:05:28.269Z,100949.97
2018-04-22T04:07:58.391Z,100954.66
2018-04-22T04:10:28.568Z,100948.41
2018-04-22T04:12:59.104Z,100944.88
2018-04-22T04:15:30.118Z,100943.36
2018-04-22T04:18:09.393Z,100937.38
2018-04-22T04:22:48.748Z,100936.36
2018-04-22T04:27:32.701Z,100928.13
2018-04-22T04:30:04.921Z,100921.31
2018-04-22T04:32:36.471Z,100920.90
2018-04-22T04:35:06.670Z,100918.69
2018-04-22T04:37:36.920Z,100918.60
2018-04-22T04:40:07.622Z,100914.05
2018-04-22T04:42:37.786Z,100920.40
2018-04-22T04:45:08.116Z,100908.36
2018-04-22T04:47:38.603Z,100921.67
2018-04-22T04:50:08.743Z,100914.64
2018-04-22T04:52:39.283Z,100915.55
2018-04-22T04:55:09.553Z,100919.17
2018-04-22T04:57:39.673Z,100918.31
2018-04-22T05:00:10.902Z,100913.45
2018-04-22T05:02:45.057Z,100927.59
2018-04-22T05:05:15.261Z,100926.48
2018-04-22T05:07:46.334Z,100921.56
2018-04-22T05:10:16.584Z,100913.20
2018-04-22T05:12:46.716Z,100914.87
2018-04-22T05:15:17.227Z,100914.72
2018-04-22T05:17:47.410Z,100907.67
2018-04-22T05:20:18.094Z,100904.27
2018-04-22T05:22:49.562Z,100903.94
2018-04-22T05:25:19.701Z,100913.16
2018-04-22T05:27:50.943Z,100903.23
2018-04-22T05:30:22.127Z,100906.98
2018-04-22T05:32:52.395Z,100910.79
2018-04-22T05:35:31.233Z,100915.35
2018-04-22T05:38:01.493Z,100909.48
2018-04-22T05:40:31.699Z,100912.47
2018-04-22T05:43:02.877Z,100909.48
2018-04-22T05:45:33.683Z,100905.34
2018-04-22T05:48:04.158Z,100907.96
2018-04-22T05:50:34.380Z,100909.62
2018-04-22T05:53:05.003Z,100903.59
2018-04-22T05:55:35.098Z,100901.17
2018-04-22T05:58:05.342Z,100896.88
2018-04-22T06:00:36.820Z,100898.76
2018-04-22T06:03:07.120Z,100904.50
2018-04-22T06:05:37.816Z,100894.40
2018-04-22T06:08:09.254Z,100904.50
2018-04-22T06:10:39.541Z,100898.44
2018-04-22T06:13:09.655Z,100899.56
2018-04-22T06:18:41.056Z,100888.30
2018-04-22T06:21:11.566Z,100895.61
2018-04-22T06:23:42.520Z,100892.47
2018-04-22T06:26:12.960Z,100900.86
2018-04-22T06:28:43.452Z,100897.39
2018-04-22T06:31:14.007Z,100888.59
2018-04-22T06:33:44.202Z,100883.12
2018-04-22T06:36:14.640Z,100882.33
2018-04-22T06:38:44.912Z,100890.13
2018-04-22T06:41:15.418Z,100890.21
2018-04-22T06:43:45.869Z,100887.78
2018-04-22T06:46:16.206Z,100885.01
2018-04-22T06:48:48.299Z,100886.62
2018-04-22T06:51:21.335Z,100882.07
2018-04-22T06:53:52.823Z,100876.53
2018-04-22T06:56:31.557Z,100877.20
2018-04-22T06:59:01.699Z,100879.02
2018-04-22T07:01:32.069Z,100873.78
2018-04-22T07:04:02.627Z,100864.83
2018-04-22T07:06:33.260Z,100880.28
2018-04-22T07:09:03.429Z,100878.58
2018-04-22T07:11:34.293Z,100884.86
2018-04-22T07:14:04.528Z,100873.61
2018-04-22T07:16:35.018Z,100878.72
2018-04-22T07:19:13.886Z,100878.75
2018-04-22T07:21:51.801Z,100887.03
2018-04-22T07:24:23.005Z,100869.82
2018-04-22T07:26:53.726Z,100880.80
2018-04-22T07:29:23.950Z,100885.77
2018-04-22T07:31:54.870Z,100883.56
2018-04-22T07:34:25.282Z,100882.94
2018-04-22T07:36:56.371Z,100886.17
2018-04-22T07:39:42.609Z,100888.82
2018-04-22T07:42:13.446Z,100882.95
2018-04-22T07:44:45.467Z,100881.20
2018-04-22T07:47:25.827Z,100878.28
2018-04-22T07:55:36.692Z,100866.59
2018-04-22T07:58:13.280Z,100871.79
2018-04-22T08:00:45.327Z,100872.86
2018-04-22T08:03:16.252Z,100876.26
2018-04-22T08:05:46.361Z,100843.36
2018-04-22T08:08:17.187Z,100862.93
2018-04-22T08:10:47.433Z,100863.66
2018-04-22T08:13:18.027Z,100869.45
2018-04-22T08:15:49.240Z,100867.30
2018-04-22T08:18:21.281Z,100863.21
2018-04-22T08:20:59.091Z,100869.41
2018-04-22T08:23:29.613Z,100854.23
2018-04-22T08:26:00.400Z,100865.75
2018-04-22T08:28:35.392Z,100864.18
2018-04-22T08:31:06.817Z,100858.18
2018-04-22T08:33:38.165Z,100852.34
2018-04-22T08:36:12.326Z,100864.39
2018-04-22T08:38:55.848Z,100858.69
2018-04-22T08:41:33.330Z,100838.67
2018-04-22T08:44:07.072Z,100861.89
2018-04-22T08:46:40.163Z,100860.40
2018-04-22T08:49:15.436Z,100859.80
2018-04-22T08:54:28.051Z,100860.79
2018-04-22T08:57:00.175Z,100858.03
2018-04-22T08:59:31.198Z,100865.28
2018-04-22T09:02:04.349Z,100864.27
2018-04-22T09:04:40.199Z,100863.15
2018-04-22T09:07:24.047Z,100863.61
2018-04-22T09:10:00.231Z,100856.41
2018-04-22T09:12:31.073Z,100844.22
2018-04-22T09:15:03.428Z,100862.49
2018-04-22T09:17:36.044Z,100847.27
2018-04-22T09:20:06.411Z,100852.30
2018-04-22T09:22:37.441Z,100854.40
2018-04-22T09:25:14.160Z,100846.71
2018-04-22T09:27:44.477Z,100840.20
2018-04-22T09:30:22.606Z,100842.03
2018-04-22T09:32:53.533Z,100847.23
2018-04-22T09:35:27.173Z,100849.41
2018-04-22T09:37:57.504Z,100841.47
2018-04-22T09:40:31.669Z,100847.97
2018-04-22T09:43:11.825Z,100850.93
2018-04-22T09:45:47.992Z,100849.25
2018-04-22T09:48:18.833Z,100851.60
2018-04-22T09:50:49.539Z,100848.22
2018-04-22T09:53:20.051Z,100846.95
2018-04-22T09:55:53.105Z,100849.59
2018-04-22T09:58:24.104Z,100838.88
2018-04-22T10:01:01.983Z,100832.50
2018-04-22T10:03:32.551Z,100825.19
2018-04-22T10:06:08.635Z,100824.70
2018-04-22T10:08:39.722Z,100828.31
2018-04-22T10:11:10.304Z,100820.05
2018-04-22T10:13:40.771Z,100807.28
2018-04-22T10:16:11.810Z,100809.30
2018-04-22T10:18:42.828Z,100803.13
2018-04-22T10:21:14.443Z,100807.54
2018-04-22T10:23:44.730Z,100802.80
2018-04-22T10:26:24.836Z,100800.19
2018-04-22T10:28:57.435Z,100803.30
2018-04-22T10:31:29.615Z,100798.63
2018-04-22T10:34:01.092Z,100786.69
2018-04-22T10:36:32.425Z,100792.36
2018-04-22T10:39:02.783Z,100791.52
2018-04-22T10:41:33.887Z,100783.97
2018-04-22T10:44:05.892Z,100776.78
2018-04-22T10:46:37.253Z,100777.97
2018-04-22T10:49:08.092Z,100768.73
2018-04-22T10:51:38.653Z,100766.97
2018-04-22T10:54:08.929Z,100768.09
2018-04-22T10:56:40.528Z,100758.19
2018-04-22T10:59:11.568Z,100752.92
2018-04-22T11:01:42.444Z,100742.66
2018-04-22T11:04:16.151Z,100740.39
2018-04-22T11:06:47.539Z,100738.94
2018-04-22T11:09:17.913Z,100744.08
2018-04-22T11:11:56.973Z,100721.46
2018-04-22T11:14:28.365Z,100722.57
2018-04-22T11:17:00.653Z,100722.73
2018-04-22T11:19:31.615Z,100706.16
2018-04-22T11:22:04.814Z,100721.45
2018-04-22T11:24:35.113Z,100711.67
2018-04-22T11:27:06.087Z,100710.85
2018-04-22T11:29:40.070Z,100701.98
2018-04-22T11:32:10.735Z,100702.10
2018-04-22T11:35:21.154Z,100693.55
2018-04-22T11:37:55.257Z,100691.34
2018-04-22T11:40:26.841Z,100683.01
2018-04-22T11:42:58.258Z,100680.72
2018-04-22T11:45:29.332Z,100686.11
2018-04-22T11:47:59.789Z,100685.98
2018-04-22T11:50:30.147Z,100687.92
2018-04-22T11:53:00.696Z,100666.69
2018-04-22T11:55:35.256Z,100657.74
2018-04-22T11:58:06.698Z,100669.17
2018-04-22T12:00:40.812Z,100663.25
2018-04-22T12:03:11.783Z,100661.41
2018-04-22T12:05:42.082Z,100653.41
2018-04-22T12:08:15.610Z,100664.22
2018-04-22T12:10:46.152Z,100663.84
2018-04-22T12:13:24.432Z,100665.11
2018-04-22T12:16:03.267Z,100657.68
2018-04-22T12:18:36.923Z,100657.34
2018-04-22T12:21:07.326Z,100651.28
2018-04-22T12:23:40.499Z,100640.34
2018-04-22T12:26:11.032Z,100634.63
2018-04-22T12:28:41.340Z,100638.70
2018-04-22T12:31:11.784Z,100638.93
2018-04-22T12:33:53.932Z,100633.10
2018-04-22T12:36:34.320Z,100632.06
2018-04-22T12:39:08.878Z,100638.26
2018-04-22T12:41:39.450Z,100647.27
2018-04-22T12:44:10.939Z,100654.13
2018-04-22T12:46:42.168Z,100650.79
2018-04-22T12:52:12.515Z,100617.85
2018-04-22T12:54:43.320Z,100607.88
2018-04-22T12:57:15.470Z,100583.49
2018-04-22T12:59:53.980Z,100576.94
2018-04-22T13:02:25.491Z,100568.15
2018-04-22T13:04:59.374Z,100578.63
2018-04-22T13:07:30.696Z,100587.86
2018-04-22T13:10:09.058Z,100597.27
2018-04-22T13:12:44.539Z,100627.16
2018-04-22T13:15:20.785Z,100648.03
2018-04-22T13:17:52.344Z,100668.13
2018-04-22T13:23:05.702Z,100650.16
2018-04-22T13:25:36.929Z,100632.74
2018-04-22T13:28:23.120Z,100612.38
2018-04-22T13:31:14.416Z,100602.73
2018-04-22T13:33:46.198Z,100618.33
2018-04-22T13:36:19.544Z,100608.14
2018-04-22T13:38:50.980Z,100607.75
2018-04-22T13:41:22.509Z,100583.80
2018-04-22T13:43:55.800Z,100607.11
2018-04-22T13:46:27.398Z,100592.53
2018-04-22T13:48:57.559Z,100592.14
2018-04-22T13:51:31.368Z,100589.41
2018-04-22T13:54:01.746Z,100588.87
2018-04-22T13:56:33.797Z,100584.10
2018-04-22T13:59:15.303Z,100587.16
2018-04-22T14:01:45.779Z,100585.66
2018-04-22T14:04:16.639Z,100553.77
2018-04-22T14:06:47.452Z,100569.27
2018-04-22T14:09:17.681Z,100562.67
2018-04-22T14:11:49.006Z,100509.77
2018-04-22T14:14:19.253Z,100552.09
2018-04-22T14:16:51.693Z,100543.59
2018-04-22T14:22:04.352Z,100541.06
2018-04-22T14:24:41.862Z,100541.13
2018-04-22T14:27:14.833Z,100535.17
2018-04-22T14:29:45.491Z,100533.73
2018-04-22T14:32:16.794Z,100525.39
2018-04-22T14:34:49.802Z,100528.47
2018-04-22T14:37:21.641Z,100521.77
2018-04-22T14:39:54.852Z,100523.27
2018-04-22T14:42:25.519Z,100512.69
2018-04-22T14:45:10.167Z,100512.81
2018-04-22T14:47:46.827Z,100511.84
2018-04-22T14:50:22.802Z,100518.28
2018-04-22T14:53:02.140Z,100496.44
2018-04-22T14:55:38.710Z,100493.59
2018-04-22T14:58:12.481Z,100481.11
2018-04-22T15:03:21.850Z,100496.02
2018-04-22T15:05:54.901Z,100490.33
2018-04-22T15:08:27.003Z,100483.70
2018-04-22T15:10:58.382Z,100493.09
2018-04-22T15:13:30.450Z,100489.30
2018-04-22T15:16:06.053Z,100481.26
2018-04-22T15:18:43.738Z,100480.70
2018-04-22T15:21:15.549Z,100471.38
2018-04-22T15:23:47.299Z,100474.92
2018-04-22T15:26:19.267Z,100466.79
2018-04-22T15:28:50.928Z,100462.66
2018-04-22T15:31:23.292Z,100457.64
2018-04-22T15:33:58.117Z,100448.30
2018-04-22T15:36:29.700Z,100459.34
2018-04-22T15:39:00.989Z,100453.28
2018-04-22T15:41:32.542Z,100446.67
2018-04-22T15:44:04.471Z,100432.89
2018-04-22T15:46:35.928Z,100442.24
2018-04-22T15:49:07.238Z,100442.52
2018-04-22T15:51:39.011Z,100443.55
2018-04-22T15:54:10.921Z,100438.97
2018-04-22T15:56:42.201Z,100443.86
2018-04-22T15:59:14.147Z,100446.78
2018-04-22T16:01:46.206Z,100422.02
2018-04-22T16:04:20.859Z,100439.75
2018-04-22T16:06:52.263Z,100441.02
2018-04-22T16:09:24.055Z,100444.59
2018-04-22T16:11:55.898Z,100445.77
2018-04-22T16:14:29.839Z,100460.64
2018-04-22T16:17:02.114Z,100446.37
2018-04-22T16:19:35.888Z,100444.45
2018-04-22T16:22:07.780Z,100433.75
2018-04-22T16:24:39.479Z,100430.67
2018-04-22T16:27:11.148Z,100435.38
2018-04-22T16:30:04.474Z,100439.12
2018-04-22T16:32:36.496Z,100439.17
2018-04-22T16:35:09.025Z,100441.94
2018-04-22T16:37:43.360Z,100437.94
2018-04-22T16:40:15.480Z,100453.91
2018-04-22T16:42:47.350Z,100455.53
2018-04-22T16:45:27.576Z,100450.36
2018-04-22T16:47:58.920Z,100454.17
2018-04-22T16:50:30.765Z,100448.33
2018-04-22T16:53:08.626Z,100454.52
2018-04-22T16:55:39.806Z,100441.09
2018-04-22T16:58:11.176Z,100441.69
2018-04-22T17:00:44.421Z,100439.80
2018-04-22T17:03:16.498Z,100458.53
2018-04-22T17:05:47.919Z,100464.92
2018-04-22T17:08:23.703Z,100442.28
2018-04-22T17:10:55.141Z,100453.80
2018-04-22T17:16:20.154Z,100446.95
2018-04-22T17:18:54.661Z,100449.08
2018-04-22T17:23:52.217Z,100454.11
2018-04-22T17:26:23.982Z,100456.38
2018-04-22T17:28:55.541Z,100462.12
2018-04-22T17:31:27.488Z,100460.99
2018-04-22T17:34:01.440Z,100469.50
2018-04-22T17:36:32.884Z,100465.66
2018-04-22T17:39:04.872Z,100467.25
2018-04-22T17:41:36.371Z,100462.95
2018-04-22T17:44:11.526Z,100469.81
2018-04-22T17:46:44.876Z,100469.11
2018-04-22T17:49:16.329Z,100474.73
2018-04-22T17:51:47.949Z,100476.06
2018-04-22T17:54:19.651Z,100468.09
2018-04-22T17:56:55.255Z,100484.35
2018-04-22T17:59:30.557Z,100480.34
2018-04-22T18:02:03.867Z,100484.86
2018-04-22T18:04:35.226Z,100481.06
2018-04-22T18:07:08.758Z,100481.20
2018-04-22T18:09:40.875Z,100492.72
2018-04-22T18:12:12.535Z,100495.03
2018-04-22T18:14:44.383Z,100503.20
2018-04-22T18:17:17.673Z,100499.43
2018-04-22T18:19:50.037Z,100503.94
2018-04-22T18:22:41.366Z,100500.59
2018-04-22T18:25:13.090Z,100514.33
2018-04-22T18:27:44.803Z,100508.39
2018-04-22T18:30:19.531Z,100514.84
2018-04-22T18:32:52.291Z,100512.76
2018-04-22T18:35:25.336Z,100511.39
2018-04-22T18:38:14.745Z,100509.96
2018-04-22T18:40:46.765Z,100520.56
2018-04-22T18:43:18.767Z,100515.13
2018-04-22T18:45:51.180Z,100528.06
2018-04-22T18:48:26.107Z,100529.73
2018-04-22T18:53:58.210Z,100527.55
2018-04-22T18:56:29.659Z,100532.98
2018-04-22T18:59:01.570Z,100541.11
2018-04-22T19:01:36.319Z,100543.20
2018-04-22T19:04:08.229Z,100546.42
2018-04-22T19:06:41.669Z,100547.17
2018-04-22T19:09:24.470Z,100548.85
2018-04-22T19:11:56.770Z,100557.58
2018-04-22T19:14:30.024Z,100560.72
2018-04-22T19:17:02.483Z,100573.44
2018-04-22T19:19:33.927Z,100575.51
2018-04-22T19:22:06.095Z,100576.05
2018-04-22T19:24:37.932Z,100583.38
2018-04-22T19:27:10.093Z,100589.48
2018-04-22T19:29:42.709Z,100585.99
2018-04-22T19:34:56.196Z,100601.04
2018-04-22T19:37:30.660Z,100605.53
2018-04-22T19:40:13.556Z,100610.12
2018-04-22T19:42:55.538Z,100615.27
2018-04-22T19:45:33.121Z,100623.55
2018-04-22T19:48:06.401Z,100622.79
2018-04-22T19:50:38.474Z,100623.78
2018-04-22T19:53:10.158Z,100630.52
2018-04-22T19:55:41.900Z,100624.42
2018-04-22T19:58:14.802Z,100635.63
2018-04-22T20:00:46.755Z,100634.46
2018-04-22T20:03:18.212Z,100638.32
2018-04-22T20:05:56.098Z,100649.76
2018-04-22T20:08:27.490Z,100653.98
2018-04-22T20:11:00.221Z,100653.50
2018-04-22T20:13:32.128Z,100651.25
2018-04-22T20:16:06.963Z,100652.61
2018-04-22T20:18:43.278Z,100660.21
2018-04-22T20:21:16.099Z,100658.58
2018-04-22T20:23:48.363Z,100667.57
2018-04-22T20:26:20.324Z,100670.66
2018-04-22T20:28:55.970Z,100675.39
2018-04-22T20:31:35.577Z,100673.18
2018-04-22T20:34:07.508Z,100675.36
2018-04-22T20:36:45.023Z,100671.33
2018-04-22T20:39:17.674Z,100672.86
2018-04-22T20:41:49.289Z,100666.04
2018-04-22T20:44:21.348Z,100665.31
2018-04-22T20:46:53.855Z,100679.77
2018-04-22T20:49:25.631Z,100666.59
2018-04-22T20:51:59.463Z,100674.48
2018-04-22T20:54:31.280Z,100671.40
2018-04-22T20:57:03.022Z,100673.23
2018-04-22T20:59:34.574Z,100665.22
2018-04-22T21:02:07.180Z,100668.23
2018-04-22T21:04:39.162Z,100664.05
2018-04-22T21:07:11.047Z,100664.50
2018-04-22T21:09:42.562Z,100664.78
2018-04-22T21:12:14.002Z,100674.34
2018-04-22T21:14:46.183Z,100665.73
2018-04-22T21:20:05.221Z,100672.25
2018-04-22T21:22:44.526Z,100679.22
2018-04-22T21:25:16.805Z,100671.84
2018-04-22T21:27:49.934Z,100669.89
2018-04-22T21:30:23.268Z,100672.00
2018-04-22T21:33:02.790Z,100673.34
2018-04-22T21:35:34.843Z,100671.91
2018-04-22T21:38:06.905Z,100677.86
2018-04-22T21:40:39.538Z,100680.33
2018-04-22T21:43:10.993Z,100674.94
2018-04-22T21:45:43.301Z,100674.34
2018-04-22T21:48:15.528Z,100673.75
2018-04-22T21:50:54.618Z,100670.48
2018-04-22T21:53:32.454Z,100677.79
2018-04-22T21:56:05.867Z,100666.67
2018-04-22T21:58:38.242Z,100662.30
2018-04-22T22:01:10.586Z,100662.42
2018-04-22T22:03:42.628Z,100666.20
2018-04-22T22:06:14.329Z,100667.45
2018-04-22T22:08:45.806Z,100663.75
2018-04-22T22:11:17.272Z,100666.28
2018-04-22T22:13:48.654Z,100667.72
2018-04-22T22:16:20.663Z,100673.80
2018-04-22T22:18:52.370Z,100668.47
2018-04-22T22:21:24.549Z,100667.64
2018-04-22T22:23:56.141Z,100660.08
2018-04-22T22:26:28.364Z,100658.77
2018-04-22T22:28:59.888Z,100661.28
2018-04-22T22:31:32.922Z,100661.47
2018-04-22T22:34:04.370Z,100660.02
2018-04-22T22:36:35.958Z,100664.60
2018-04-22T22:39:08.292Z,100666.91
2018-04-22T22:41:40.555Z,100666.48
2018-04-22T22:44:11.930Z,100670.52
2018-04-22T22:46:43.821Z,100670.52
2018-04-22T22:49:15.332Z,100662.08
2018-04-22T22:51:46.926Z,100648.22
2018-04-22T22:54:18.366Z,100652.06
2018-04-22T22:56:50.039Z,100652.99
2018-04-22T22:59:21.541Z,100650.58
2018-04-22T23:01:53.704Z,100641.29
2018-04-22T23:04:25.352Z,100647.98
2018-04-22T23:06:57.506Z,100656.93
2018-04-22T23:09:29.564Z,100655.69
2018-04-22T23:12:01.233Z,100648.89
2018-04-22T23:14:32.507Z,100655.73
2018-04-22T23:17:04.139Z,100660.19
2018-04-22T23:19:35.439Z,100656.97
2018-04-22T23:22:08.347Z,100651.02
2018-04-22T23:24:40.631Z,100647.13
2018-04-22T23:27:13.678Z,100647.36
2018-04-22T23:29:46.269Z,100646.95
2018-04-22T23:32:18.406Z,100645.88
2018-04-22T23:34:49.668Z,100656.59
2018-04-22T23:37:21.103Z,100660.14
2018-04-22T23:39:52.776Z,100668.27
2018-04-22T23:42:24.056Z,100683.51
2018-04-22T23:44:55.841Z,100692.78
2018-04-22T23:47:28.148Z,100677.98
2018-04-22T23:52:56.453Z,100677.64
2018-04-22T23:55:27.757Z,100684.92
2018-04-22T23:57:59.568Z,100692.47
